Time;durP1;ratioP1;P1;durP2;ratioP2;P2;SDS_P1;SDS_P2;PMS_P1;PMS_P2;Temp;Humidity;BMP_temperature;BMP_pressure;BME280_temperature;BME280_humidity;BME280_pressure;Samples;Min_cycle;Max_cycle;Signal;HPM_P1;HPM_P2
2022/05/12 00:00:20;;;;;;;8.00;5.40;;;;;;;;;;5051950;28;20025;-44
2022/05/12 00:02:46;;;;;;;8.02;5.38;;;;;;;;;;5051890;28;20017;-42
2022/05/12 00:05:13;;;;;;;6.78;5.18;;;;;;;;;;5051876;28;20021;-42
2022/05/12 00:07:39;;;;;;;8.75;5.82;;;;;;;;;;5052111;28;20033;-44
2022/05/12 00:10:08;;;;;;;7.60;5.43;;;;;;;;;;5051505;28;20143;-42
2022/05/12 00:12:34;;;;;;;7.45;5.32;;;;;;;;;;5051966;28;20025;-44
2022/05/12 00:15:00;;;;;;;7.25;5.28;;;;;;;;;;5045120;28;20035;-42
2022/05/12 00:17:26;;;;;;;6.53;5.45;;;;;;;;;;5051394;28;20021;-42
2022/05/12 00:19:52;;;;;;;7.13;4.95;;;;;;;;;;5051391;28;20032;-44
2022/05/12 00:22:18;;;;;;;8.10;5.22;;;;;;;;;;5051474;28;20044;-44
2022/05/12 00:24:44;;;;;;;6.63;4.95;;;;;;;;;;5051522;28;20028;-42
2022/05/12 00:27:10;;;;;;;9.68;5.47;;;;;;;;;;5051572;28;20121;-42
2022/05/12 00:29:36;;;;;;;9.88;5.50;;;;;;;;;;5050778;28;20083;-42
2022/05/12 00:32:05;;;;;;;6.80;5.65;;;;;;;;;;5051215;28;20376;-42
2022/05/12 00:34:31;;;;;;;7.63;5.30;;;;;;;;;;5051374;28;20051;-42
2022/05/12 00:36:57;;;;;;;5.90;5.22;;;;;;;;;;5051276;28;20021;-44
2022/05/12 00:39:26;;;;;;;7.25;5.10;;;;;;;;;;5051432;28;20365;-44
2022/05/12 00:41:52;;;;;;;7.65;5.30;;;;;;;;;;5051526;28;20029;-42
2022/05/12 00:44:20;;;;;;;7.35;5.45;;;;;;;;;;5051463;28;20443;-42
2022/05/12 00:46:50;;;;;;;18.95;17.00;;;;;;;;;;5035937;28;20037;-42
2022/05/12 00:49:22;;;;;;;13.05;10.23;;;;;;;;;;5052335;28;20029;-43
2022/05/12 00:51:55;;;;;;;9.75;7.10;;;;;;;;;;5053417;28;20017;-45
2022/05/12 00:54:24;;;;;;;7.78;6.60;;;;;;;;;;5053397;28;20497;-44
2022/05/12 00:56:50;;;;;;;11.57;6.03;;;;;;;;;;5053231;28;20487;-43
2022/05/12 00:59:22;;;;;;;8.00;5.68;;;;;;;;;;5053671;28;20021;-44
2022/05/12 01:01:49;;;;;;;10.80;5.57;;;;;;;;;;5053058;28;20419;-43
2022/05/12 01:04:18;;;;;;;7.05;5.22;;;;;;;;;;5053078;28;20025;-43
2022/05/12 01:06:44;;;;;;;7.13;4.82;;;;;;;;;;5053329;28;20031;-43
2022/05/12 01:09:10;;;;;;;6.68;4.70;;;;;;;;;;5054336;28;20446;-43
2022/05/12 01:11:36;;;;;;;7.85;4.60;;;;;;;;;;5053349;28;20036;-43
2022/05/12 01:14:04;;;;;;;5.57;4.88;;;;;;;;;;5053134;28;20048;-43
2022/05/12 01:16:37;;;;;;;6.90;4.82;;;;;;;;;;5053376;28;20032;-43
2022/05/12 01:19:03;;;;;;;5.30;4.70;;;;;;;;;;5053237;28;20103;-43
2022/05/12 01:21:29;;;;;;;6.63;4.75;;;;;;;;;;5053356;28;20025;-43
2022/05/12 01:23:55;;;;;;;7.18;4.47;;;;;;;;;;5053359;28;20415;-43
2022/05/12 01:26:21;;;;;;;7.50;4.13;;;;;;;;;;5053119;28;20025;-43
2022/05/12 01:28:49;;;;;;;5.22;4.53;;;;;;;;;;5053043;28;20538;-44
2022/05/12 01:31:19;;;;;;;9.68;4.68;;;;;;;;;;5052689;28;20048;-43
2022/05/12 01:33:45;;;;;;;8.65;5.05;;;;;;;;;;5052939;28;20487;-43
2022/05/12 01:36:11;;;;;;;9.02;4.65;;;;;;;;;;5053054;28;20037;-44
2022/05/12 01:38:37;;;;;;;7.07;4.53;;;;;;;;;;5052844;28;20025;-43
2022/05/12 01:41:03;;;;;;;9.00;4.70;;;;;;;;;;5052986;28;20029;-43
2022/05/12 01:43:29;;;;;;;7.63;4.90;;;;;;;;;;5053156;28;20021;-47
2022/05/12 01:45:55;;;;;;;6.10;4.47;;;;;;;;;;5052932;28;20029;-44
2022/05/12 01:48:24;;;;;;;6.72;4.25;;;;;;;;;;5052665;28;20158;-43
2022/05/12 01:50:52;;;;;;;6.97;4.60;;;;;;;;;;5052675;28;20037;-46
2022/05/12 01:53:18;;;;;;;5.47;4.28;;;;;;;;;;5052728;28;20393;-44
2022/05/12 01:55:48;;;;;;;6.38;4.60;;;;;;;;;;5052633;28;20025;-44
2022/05/12 01:58:17;;;;;;;5.78;4.32;;;;;;;;;;5052923;28;20024;-43
2022/05/12 02:00:43;;;;;;;8.30;4.88;;;;;;;;;;5052450;28;20021;-43
2022/05/12 02:03:09;;;;;;;7.43;4.75;;;;;;;;;;5052666;28;20025;-43
2022/05/12 02:05:37;;;;;;;5.97;4.50;;;;;;;;;;5053003;28;20366;-43
2022/05/12 02:08:05;;;;;;;5.38;4.50;;;;;;;;;;5052723;28;20481;-43
2022/05/12 02:10:33;;;;;;;6.40;4.45;;;;;;;;;;5052348;28;20079;-44
2022/05/12 02:12:59;;;;;;;6.22;4.40;;;;;;;;;;5054751;28;20516;-43
2022/05/12 02:15:25;;;;;;;6.45;4.45;;;;;;;;;;5038664;28;20044;-43
2022/05/12 02:17:51;;;;;;;6.75;4.70;;;;;;;;;;5055988;28;20032;-43
2022/05/12 02:20:19;;;;;;;8.82;5.18;;;;;;;;;;5056448;28;20070;-44
2022/05/12 02:22:47;;;;;;;10.10;5.10;;;;;;;;;;5056232;28;20029;-44
2022/05/12 02:25:13;;;;;;;8.93;4.10;;;;;;;;;;5056221;28;20047;-43
2022/05/12 02:27:45;;;;;;;5.82;4.28;;;;;;;;;;5056206;28;20071;-46
2022/05/12 02:30:12;;;;;;;6.85;4.50;;;;;;;;;;5055931;28;20361;-45
2022/05/12 02:32:38;;;;;;;10.13;4.70;;;;;;;;;;5056308;28;20377;-43
2022/05/12 02:35:06;;;;;;;7.82;4.28;;;;;;;;;;5055968;28;20021;-44
2022/05/12 02:37:33;;;;;;;5.20;4.07;;;;;;;;;;5055732;28;20476;-43
2022/05/12 02:39:59;;;;;;;6.15;4.70;;;;;;;;;;5055696;28;20033;-43
2022/05/12 02:42:25;;;;;;;7.30;4.75;;;;;;;;;;5055932;28;20025;-43
2022/05/12 02:44:51;;;;;;;7.20;5.18;;;;;;;;;;5056085;28;20485;-44
2022/05/12 02:47:19;;;;;;;10.40;5.00;;;;;;;;;;5056009;28;20529;-46
2022/05/12 02:49:45;;;;;;;14.23;5.60;;;;;;;;;;5055513;28;20032;-44
2022/05/12 02:52:11;;;;;;;9.05;4.93;;;;;;;;;;5055879;28;20071;-44
2022/05/12 02:54:37;;;;;;;10.63;5.45;;;;;;;;;;5055650;28;20056;-43
2022/05/12 02:57:06;;;;;;;10.10;5.40;;;;;;;;;;5055461;28;20059;-43
2022/05/12 02:59:33;;;;;;;7.22;5.10;;;;;;;;;;5055649;28;20055;-44
2022/05/12 03:01:59;;;;;;;11.05;5.82;;;;;;;;;;5055557;28;20376;-43
2022/05/12 03:04:26;;;;;;;14.15;5.63;;;;;;;;;;5055249;28;20028;-44
2022/05/12 03:06:52;;;;;;;7.40;5.35;;;;;;;;;;5055580;28;20025;-46
2022/05/12 03:09:18;;;;;;;9.38;5.20;;;;;;;;;;5055040;28;20029;-43
2022/05/12 03:11:44;;;;;;;14.82;6.10;;;;;;;;;;5055398;28;20508;-47
2022/05/12 03:14:11;;;;;;;9.75;5.40;;;;;;;;;;5055250;28;20025;-45
2022/05/12 03:16:37;;;;;;;11.70;6.55;;;;;;;;;;5054958;28;20025;-45
2022/05/12 03:19:03;;;;;;;6.70;5.35;;;;;;;;;;5055234;28;20027;-45
2022/05/12 03:21:30;;;;;;;7.90;5.13;;;;;;;;;;5055201;28;20029;-44
2022/05/12 03:23:56;;;;;;;7.55;5.57;;;;;;;;;;5054077;28;20162;-44
2022/05/12 03:26:23;;;;;;;9.48;5.10;;;;;;;;;;5055049;28;20048;-46
2022/05/12 03:28:49;;;;;;;8.20;5.80;;;;;;;;;;5054917;28;20021;-43
2022/05/12 03:31:15;;;;;;;8.13;5.45;;;;;;;;;;5054769;28;20035;-44
2022/05/12 03:33:41;;;;;;;7.75;5.30;;;;;;;;;;5054799;28;20025;-44
2022/05/12 03:36:08;;;;;;;7.57;5.60;;;;;;;;;;5054916;28;20079;-44
2022/05/12 03:38:34;;;;;;;4.93;4.43;;;;;;;;;;5054904;28;20049;-44
2022/05/12 03:41:00;;;;;;;7.40;5.13;;;;;;;;;;5054663;28;20045;-44
2022/05/12 03:46:12;;;;;;;6.50;5.05;;;;;;;;;;5054828;28;20039;-44
2022/05/12 03:48:39;;;;;;;10.00;5.45;;;;;;;;;;5054577;28;20435;-44
2022/05/12 03:51:06;;;;;;;10.30;5.38;;;;;;;;;;5054383;28;20033;-44
2022/05/12 03:53:32;;;;;;;11.23;5.68;;;;;;;;;;5054435;28;20384;-43
2022/05/12 03:55:59;;;;;;;9.32;4.93;;;;;;;;;;5054289;28;20488;-44
2022/05/12 03:58:25;;;;;;;10.10;5.90;;;;;;;;;;5036402;28;20443;-44
2022/05/12 04:00:57;;;;;;;9.35;5.57;;;;;;;;;;5054451;28;20386;-44
2022/05/12 04:03:23;;;;;;;14.05;5.47;;;;;;;;;;5054143;28;20028;-45
2022/05/12 04:05:49;;;;;;;9.32;5.80;;;;;;;;;;5054239;28;20516;-44
2022/05/12 04:08:15;;;;;;;8.27;5.80;;;;;;;;;;5054354;28;20032;-43
2022/05/12 04:10:43;;;;;;;10.45;5.50;;;;;;;;;;5053705;28;20053;-43
2022/05/12 04:13:09;;;;;;;11.02;5.85;;;;;;;;;;5053968;28;20024;-44
2022/05/12 04:15:36;;;;;;;9.00;5.75;;;;;;;;;;5054330;28;20032;-44
2022/05/12 04:18:05;;;;;;;11.40;5.60;;;;;;;;;;5053973;28;20052;-43
2022/05/12 04:20:33;;;;;;;11.13;6.03;;;;;;;;;;5054290;28;20436;-45
2022/05/12 04:22:59;;;;;;;11.10;5.35;;;;;;;;;;5054100;28;20035;-43
2022/05/12 04:25:25;;;;;;;8.73;5.25;;;;;;;;;;5053784;28;20035;-44
2022/05/12 04:27:52;;;;;;;11.02;5.68;;;;;;;;;;5053793;28;20105;-43
2022/05/12 04:30:19;;;;;;;9.55;5.70;;;;;;;;;;5053935;28;20033;-47
2022/05/12 04:32:45;;;;;;;9.07;6.07;;;;;;;;;;5053937;28;20048;-44
2022/05/12 04:35:14;;;;;;;35.53;22.98;;;;;;;;;;5053634;28;20078;-44
2022/05/12 04:37:50;;;;;;;25.30;14.52;;;;;;;;;;5053625;28;20032;-44
2022/05/12 04:40:23;;;;;;;21.67;12.60;;;;;;;;;;5053574;28;20033;-44
2022/05/12 04:42:49;;;;;;;17.52;11.13;;;;;;;;;;5053884;28;20043;-45
2022/05/12 04:45:16;;;;;;;13.32;7.35;;;;;;;;;;5053622;28;20032;-44
2022/05/12 04:47:43;;;;;;;19.05;10.18;;;;;;;;;;5053485;28;20033;-44
2022/05/12 04:50:11;;;;;;;19.27;10.30;;;;;;;;;;5053438;28;20036;-44
2022/05/12 04:52:37;;;;;;;17.50;10.52;;;;;;;;;;5053481;28;20366;-44
2022/05/12 04:55:03;;;;;;;10.30;7.97;;;;;;;;;;5053241;28;20032;-44
2022/05/12 04:57:41;;;;;;;24.15;12.88;;;;;;;;;;5053392;28;20029;-44
2022/05/12 05:00:10;;;;;;;22.55;15.25;;;;;;;;;;5053309;28;20033;-44
2022/05/12 05:02:36;;;;;;;25.23;14.65;;;;;;;;;;5053250;28;20021;-44
2022/05/12 05:05:04;;;;;;;13.20;8.23;;;;;;;;;;5052544;28;20491;-44
2022/05/12 05:07:30;;;;;;;13.63;10.43;;;;;;;;;;5053060;28;20428;-45
2022/05/12 05:09:56;;;;;;;13.07;6.95;;;;;;;;;;5052613;28;20067;-44
2022/05/12 05:12:22;;;;;;;11.63;7.03;;;;;;;;;;5053479;28;20573;-46
2022/05/12 05:14:48;;;;;;;12.48;8.27;;;;;;;;;;5053341;28;20021;-47
2022/05/12 05:17:14;;;;;;;10.57;7.80;;;;;;;;;;5053274;28;20021;-45
2022/05/12 05:19:41;;;;;;;10.70;6.85;;;;;;;;;;5053401;28;20527;-45
2022/05/12 05:22:14;;;;;;;8.02;5.90;;;;;;;;;;5053150;28;20025;-46
2022/05/12 05:24:40;;;;;;;8.95;5.93;;;;;;;;;;5053086;28;20024;-46
2022/05/12 05:27:07;;;;;;;9.98;6.65;;;;;;;;;;5053077;28;20055;-46
2022/05/12 05:29:33;;;;;;;8.57;6.25;;;;;;;;;;5053221;28;20029;-45
2022/05/12 05:31:59;;;;;;;17.63;6.97;;;;;;;;;;5053040;28;20035;-45
2022/05/12 05:34:29;;;;;;;8.13;6.15;;;;;;;;;;5052853;28;20477;-47
2022/05/12 05:36:55;;;;;;;8.65;5.45;;;;;;;;;;5052893;28;20075;-45
2022/05/12 05:39:23;;;;;;;9.45;5.60;;;;;;;;;;5052731;28;20507;-45
2022/05/12 05:41:50;;;;;;;7.85;5.35;;;;;;;;;;5053176;28;20032;-46
2022/05/12 05:44:16;;;;;;;6.72;5.35;;;;;;;;;;5053002;28;20028;-45
2022/05/12 05:46:42;;;;;;;5.35;4.65;;;;;;;;;;5053075;28;20021;-45
2022/05/12 05:49:08;;;;;;;9.80;5.68;;;;;;;;;;5056678;28;20025;-45
2022/05/12 05:54:19;;;;;;;7.15;5.07;;;;;;;;;;5056849;28;20079;-45
2022/05/12 05:56:47;;;;;;;6.38;4.97;;;;;;;;;;5056789;28;20051;-46
2022/05/12 05:59:14;;;;;;;7.28;4.35;;;;;;;;;;5056704;28;20033;-46
2022/05/12 06:01:40;;;;;;;8.98;4.57;;;;;;;;;;5056729;28;20043;-45
2022/05/12 06:04:06;;;;;;;9.43;5.10;;;;;;;;;;5056472;28;20017;-48
2022/05/12 06:06:32;;;;;;;13.70;5.07;;;;;;;;;;5056401;28;20035;-45
2022/05/12 06:08:58;;;;;;;6.90;4.43;;;;;;;;;;5056486;28;20044;-46
2022/05/12 06:11:24;;;;;;;6.72;4.95;;;;;;;;;;5056087;28;20041;-46
2022/05/12 06:13:53;;;;;;;8.63;5.05;;;;;;;;;;5056376;28;20465;-45
2022/05/12 06:16:20;;;;;;;5.22;4.30;;;;;;;;;;5056209;28;20507;-45
2022/05/12 06:18:47;;;;;;;7.40;4.57;;;;;;;;;;5056122;28;20087;-48
2022/05/12 06:21:13;;;;;;;8.07;5.20;;;;;;;;;;5055984;28;20035;-48
2022/05/12 06:23:40;;;;;;;8.82;5.60;;;;;;;;;;5056064;28;20025;-45
2022/05/12 06:26:13;;;;;;;11.27;5.18;;;;;;;;;;5056328;28;20147;-48
2022/05/12 06:28:40;;;;;;;11.35;5.43;;;;;;;;;;5056097;28;20091;-45
2022/05/12 06:31:06;;;;;;;10.50;7.07;;;;;;;;;;5070675;28;20127;-44
2022/05/12 06:33:33;;;;;;;13.80;8.40;;;;;;;;;;5055864;28;20096;-46
2022/05/12 06:36:02;;;;;;;14.05;9.35;;;;;;;;;;5055775;28;20071;-46
2022/05/12 06:38:28;;;;;;;20.75;11.60;;;;;;;;;;5055865;28;20021;-44
2022/05/12 06:40:55;;;;;;;11.98;8.27;;;;;;;;;;5055770;28;20113;-45
2022/05/12 06:43:23;;;;;;;9.27;5.53;;;;;;;;;;5056175;28;20013;-45
2022/05/12 06:45:49;;;;;;;13.77;7.82;;;;;;;;;;5055624;28;20025;-45
2022/05/12 06:48:16;;;;;;;15.68;9.38;;;;;;;;;;5055791;28;20469;-45
2022/05/12 06:50:42;;;;;;;14.02;6.63;;;;;;;;;;5055394;28;20037;-44
2022/05/12 06:53:09;;;;;;;18.35;6.25;;;;;;;;;;5055831;28;20021;-45
2022/05/12 06:55:35;;;;;;;11.38;6.30;;;;;;;;;;5055712;28;20108;-45
2022/05/12 06:58:01;;;;;;;10.48;6.50;;;;;;;;;;5055422;28;20024;-45
2022/05/12 07:00:28;;;;;;;11.38;6.88;;;;;;;;;;5055377;28;20021;-45
2022/05/12 07:02:54;;;;;;;11.27;5.18;;;;;;;;;;5055322;28;20393;-45
2022/05/12 07:05:21;;;;;;;11.40;7.85;;;;;;;;;;5055315;28;20029;-47
2022/05/12 07:07:48;;;;;;;11.30;8.20;;;;;;;;;;5055450;28;20090;-45
2022/05/12 07:10:15;;;;;;;9.50;6.30;;;;;;;;;;5054865;28;20052;-45
2022/05/12 07:12:47;;;;;;;8.32;5.90;;;;;;;;;;5055306;28;20025;-48
2022/05/12 07:15:13;;;;;;;9.73;5.60;;;;;;;;;;5055229;28;20086;-45
2022/05/12 07:17:42;;;;;;;13.82;5.78;;;;;;;;;;5055022;28;20374;-45
2022/05/12 07:28:25;;;;;;;11.95;5.57;;;;;;;;;;5055189;28;20036;-45
2022/05/12 07:31:01;;;;;;;8.13;5.63;;;;;;;;;;5054939;28;20124;-45
2022/05/12 07:33:27;;;;;;;8.25;3.92;;;;;;;;;;5054915;28;20419;-46
2022/05/12 07:35:56;;;;;;;8.82;3.83;;;;;;;;;;5054827;28;20044;-46
2022/05/12 07:38:22;;;;;;;8.20;3.30;;;;;;;;;;5054731;28;20492;-45
2022/05/12 07:40:49;;;;;;;82.53;46.15;;;;;;;;;;5054526;28;20404;-46
2022/05/12 07:43:15;;;;;;;14.57;7.68;;;;;;;;;;5054546;28;20489;-46
2022/05/12 07:45:41;;;;;;;13.98;7.78;;;;;;;;;;5054565;28;20032;-45
2022/05/12 07:48:07;;;;;;;10.55;6.90;;;;;;;;;;5054745;28;20060;-45
2022/05/12 07:50:34;;;;;;;17.40;9.13;;;;;;;;;;5054300;28;20036;-44
2022/05/12 07:53:00;;;;;;;10.68;5.40;;;;;;;;;;5069932;28;20025;-45
2022/05/12 07:55:26;;;;;;;19.80;12.18;;;;;;;;;;5054463;28;20083;-45
2022/05/12 07:57:52;;;;;;;16.00;10.23;;;;;;;;;;5054254;28;20029;-45
2022/05/12 08:00:18;;;;;;;22.27;9.52;;;;;;;;;;5054334;28;20021;-46
2022/05/12 08:02:45;;;;;;;8.50;3.55;;;;;;;;;;5054474;28;20032;-45
2022/05/12 08:05:12;;;;;;;16.25;6.47;;;;;;;;;;5054049;28;20028;-46
2022/05/12 08:07:38;;;;;;;6.10;3.78;;;;;;;;;;5054313;28;20036;-44
2022/05/12 08:10:05;;;;;;;19.35;12.93;;;;;;;;;;5053170;28;20449;-45
2022/05/12 08:12:32;;;;;;;19.85;12.65;;;;;;;;;;5054216;28;20033;-45
2022/05/12 08:14:58;;;;;;;8.88;5.07;;;;;;;;;;5053796;28;20115;-45
2022/05/12 08:17:24;;;;;;;9.25;5.40;;;;;;;;;;5054305;28;20029;-44
2022/05/12 08:19:50;;;;;;;6.95;3.67;;;;;;;;;;5053947;28;20380;-45
2022/05/12 08:22:18;;;;;;;4.40;3.60;;;;;;;;;;5053914;28;20029;-45
2022/05/12 08:24:44;;;;;;;5.57;3.63;;;;;;;;;;5053944;28;20021;-44
2022/05/12 08:27:10;;;;;;;19.85;12.82;;;;;;;;;;5053716;28;20025;-45
2022/05/12 08:29:38;;;;;;;9.35;5.22;;;;;;;;;;5053856;28;20366;-46
2022/05/12 08:32:04;;;;;;;15.55;9.85;;;;;;;;;;5053426;28;20119;-46
2022/05/12 08:34:30;;;;;;;14.90;5.30;;;;;;;;;;5053749;28;20094;-45
2022/05/12 08:36:56;;;;;;;35.65;17.60;;;;;;;;;;5053716;28;20025;-45
2022/05/12 08:39:24;;;;;;;40.15;22.33;;;;;;;;;;5053689;28;20029;-44
2022/05/12 08:41:54;;;;;;;13.82;8.25;;;;;;;;;;5035832;28;20040;-45
2022/05/12 08:44:22;;;;;;;36.33;22.30;;;;;;;;;;5053409;28;20033;-45
2022/05/12 08:47:02;;;;;;;33.08;23.70;;;;;;;;;;5053489;28;20021;-44
2022/05/12 08:49:28;;;;;;;39.83;28.13;;;;;;;;;;5053558;28;20104;-44
2022/05/12 08:52:14;;;;;;;17.75;9.20;;;;;;;;;;5053372;28;20032;-45
2022/05/12 08:54:43;;;;;;;7.22;4.97;;;;;;;;;;5053181;28;20021;-52
2022/05/12 08:57:15;;;;;;;77.60;45.83;;;;;;;;;;5053685;28;20025;-45
2022/05/12 08:59:41;;;;;;;33.88;22.98;;;;;;;;;;5053446;28;20021;-44
2022/05/12 09:02:07;;;;;;;93.90;69.22;;;;;;;;;;5053247;28;20100;-45
2022/05/12 09:04:36;;;;;;;67.30;45.40;;;;;;;;;;5053343;28;20022;-47
2022/05/12 09:07:19;;;;;;;13.50;6.15;;;;;;;;;;5053506;28;20053;-45
2022/05/12 09:10:04;;;;;;;68.80;39.33;;;;;;;;;;5053025;28;20073;-45
2022/05/12 09:12:49;;;;;;;63.47;34.33;;;;;;;;;;5053649;28;20045;-45
2022/05/12 09:15:26;;;;;;;162.63;98.85;;;;;;;;;;5053298;28;20040;-45
2022/05/12 09:17:57;;;;;;;240.35;136.60;;;;;;;;;;5052890;28;20479;-45
2022/05/12 09:20:24;;;;;;;116.40;63.40;;;;;;;;;;5053187;28;20029;-45
2022/05/12 09:22:50;;;;;;;64.22;40.67;;;;;;;;;;5055142;28;20070;-48
2022/05/12 09:25:38;;;;;;;105.55;59.42;;;;;;;;;;5057394;28;20433;-46
2022/05/12 09:28:17;;;;;;;69.32;34.30;;;;;;;;;;5057100;28;20575;-46
2022/05/12 09:30:44;;;;;;;16.65;9.35;;;;;;;;;;5056968;28;20033;-46
2022/05/12 09:33:10;;;;;;;170.85;82.57;;;;;;;;;;5057333;28;20029;-45
2022/05/12 09:35:36;;;;;;;75.80;36.42;;;;;;;;;;5056877;28;20051;-47
2022/05/12 09:38:19;;;;;;;175.05;123.32;;;;;;;;;;5057094;28;20055;-45
2022/05/12 09:40:45;;;;;;;308.55;179.88;;;;;;;;;;5056904;28;20527;-46
2022/05/12 09:43:19;;;;;;;78.38;53.75;;;;;;;;;;5056685;28;20043;-46
2022/05/12 09:46:06;;;;;;;95.47;51.97;;;;;;;;;;5056825;28;20057;-46
2022/05/12 09:48:33;;;;;;;46.40;23.48;;;;;;;;;;5056737;28;20025;-47
2022/05/12 09:51:32;;;;;;;88.03;42.42;;;;;;;;;;5056754;28;20028;-46
2022/05/12 09:54:33;;;;;;;78.40;36.15;;;;;;;;;;5014135;28;20482;-47
2022/05/12 09:57:02;;;;;;;162.13;99.13;;;;;;;;;;4946492;28;20041;-47
2022/05/12 09:59:32;;;;;;;67.45;43.63;;;;;;;;;;4947269;29;20086;-46
2022/05/12 10:02:00;;;;;;;11.40;7.20;;;;;;;;;;4945587;28;20028;-48
2022/05/12 10:10:14;;;;;;;38.85;21.27;;;;;;;;;;4947789;29;20054;-46
2022/05/12 10:12:46;;;;;;;16.55;10.15;;;;;;;;;;4944906;29;20099;-47
2022/05/12 10:15:24;;;;;;;11.40;8.02;;;;;;;;;;4946042;28;20031;-47
2022/05/12 10:17:54;;;;;;;11.43;7.20;;;;;;;;;;4946958;28;20472;-46
2022/05/12 10:20:24;;;;;;;14.15;8.77;;;;;;;;;;4944337;29;20114;-47
2022/05/12 10:22:59;;;;;;;23.55;12.43;;;;;;;;;;4944576;29;20132;-47
2022/05/12 10:25:25;;;;;;;6.80;4.53;;;;;;;;;;4948324;29;20505;-46
2022/05/12 10:27:51;;;;;;;40.67;24.35;;;;;;;;;;4944609;29;20070;-46
2022/05/12 10:30:37;;;;;;;23.08;12.68;;;;;;;;;;4989468;28;20464;-46
2022/05/12 10:33:03;;;;;;;14.48;7.70;;;;;;;;;;5054095;28;20485;-47
2022/05/12 10:35:56;;;;;;;31.95;18.73;;;;;;;;;;5052315;28;20031;-47
2022/05/12 10:38:31;;;;;;;22.02;12.88;;;;;;;;;;5003610;28;20037;-47
2022/05/12 10:41:00;;;;;;;12.88;5.60;;;;;;;;;;5035737;28;20030;-47
2022/05/12 10:43:32;;;;;;;8.73;4.68;;;;;;;;;;5051535;28;20079;-48
2022/05/12 10:46:11;;;;;;;8.48;5.72;;;;;;;;;;5055657;28;20028;-48
2022/05/12 10:48:54;;;;;;;32.67;21.92;;;;;;;;;;5055589;28;20392;-48
2022/05/12 10:51:32;;;;;;;32.88;19.10;;;;;;;;;;5055515;28;20029;-47
2022/05/12 10:54:17;;;;;;;19.13;9.32;;;;;;;;;;5055462;28;20531;-47
2022/05/12 10:57:03;;;;;;;22.13;12.40;;;;;;;;;;5055345;28;20029;-47
2022/05/12 10:59:42;;;;;;;22.17;12.23;;;;;;;;;;5055126;28;20033;-48
2022/05/12 11:02:08;;;;;;;22.73;12.10;;;;;;;;;;5055599;28;20029;-49
2022/05/12 11:04:56;;;;;;;14.30;7.30;;;;;;;;;;5055573;28;20036;-48
2022/05/12 11:07:28;;;;;;;192.93;51.20;;;;;;;;;;5055799;28;20026;-47
2022/05/12 11:10:09;;;;;;;25.45;9.25;;;;;;;;;;5055141;28;20045;-47
2022/05/12 11:12:44;;;;;;;21.17;10.85;;;;;;;;;;5055377;28;20512;-47
2022/05/12 11:15:18;;;;;;;7.72;4.28;;;;;;;;;;5055219;28;20033;-48
2022/05/12 11:18:04;;;;;;;6.32;3.92;;;;;;;;;;5055091;28;20013;-47
2022/05/12 11:20:39;;;;;;;5.47;3.92;;;;;;;;;;5055025;28;20432;-48
2022/05/12 11:23:07;;;;;;;7.32;4.05;;;;;;;;;;5054927;28;20090;-48
2022/05/12 11:25:39;;;;;;;6.30;4.03;;;;;;;;;;5055295;28;20107;-48
2022/05/12 11:31:06;;;;;;;5.47;3.55;;;;;;;;;;5054506;28;20570;-48
2022/05/12 11:33:34;;;;;;;7.80;3.80;;;;;;;;;;5054729;28;20033;-48
2022/05/12 11:36:01;;;;;;;6.85;3.80;;;;;;;;;;5054705;28;20021;-48
2022/05/12 11:38:39;;;;;;;7.20;4.75;;;;;;;;;;5051851;28;20083;-48
2022/05/12 11:41:30;;;;;;;7.68;4.47;;;;;;;;;;5052739;28;20121;-48
2022/05/12 11:44:24;;;;;;;23.58;11.57;;;;;;;;;;5054222;28;20029;-47
2022/05/12 11:46:56;;;;;;;6.60;3.83;;;;;;;;;;5054144;28;20025;-48
2022/05/12 11:49:37;;;;;;;5.93;3.80;;;;;;;;;;5052450;28;20171;-47
2022/05/12 11:52:04;;;;;;;9.77;5.13;;;;;;;;;;5053545;28;20040;-47
2022/05/12 11:54:40;;;;;;;5.65;3.47;;;;;;;;;;5053654;28;20134;-47
2022/05/12 11:57:25;;;;;;;7.68;3.20;;;;;;;;;;5052730;28;20033;-47
2022/05/12 11:59:55;;;;;;;10.38;4.65;;;;;;;;;;5053330;28;20029;-47
2022/05/12 12:02:30;;;;;;;7.70;5.57;;;;;;;;;;5053199;28;20021;-48
2022/05/12 12:04:57;;;;;;;17.70;8.70;;;;;;;;;;5033202;28;20050;-48
2022/05/12 12:07:32;;;;;;;14.25;6.75;;;;;;;;;;5024851;28;20484;-49
2022/05/12 12:10:09;;;;;;;10.00;6.18;;;;;;;;;;5024176;28;20057;-48
2022/05/12 12:12:45;;;;;;;12.68;7.90;;;;;;;;;;5023834;28;20037;-48
2022/05/12 12:15:11;;;;;;;9.05;5.15;;;;;;;;;;5048080;28;20028;-48
2022/05/12 12:17:38;;;;;;;12.52;5.53;;;;;;;;;;5073946;28;20063;-48
2022/05/12 12:20:08;;;;;;;16.52;7.18;;;;;;;;;;5073883;28;20069;-48
2022/05/12 12:22:53;;;;;;;16.00;7.82;;;;;;;;;;5073824;28;20029;-48
2022/05/12 12:25:29;;;;;;;8.48;5.53;;;;;;;;;;5074024;28;20044;-48
2022/05/12 12:27:55;;;;;;;8.77;4.18;;;;;;;;;;5073725;28;20029;-48
2022/05/12 12:30:27;;;;;;;4.53;3.75;;;;;;;;;;5074079;28;20024;-47
2022/05/12 12:33:13;;;;;;;13.00;6.15;;;;;;;;;;5073831;28;20392;-47
2022/05/12 12:36:00;;;;;;;4.43;3.15;;;;;;;;;;5073743;28;20464;-48
2022/05/12 12:38:44;;;;;;;7.85;3.83;;;;;;;;;;5073658;28;20058;-47
2022/05/12 12:41:22;;;;;;;9.75;4.22;;;;;;;;;;5073615;28;20033;-48
2022/05/12 12:43:57;;;;;;;36.83;24.20;;;;;;;;;;5073549;28;20038;-48
2022/05/12 12:46:41;;;;;;;18.20;9.65;;;;;;;;;;5073825;28;20029;-47
2022/05/12 12:49:25;;;;;;;14.85;8.95;;;;;;;;;;5073547;28;20028;-48
2022/05/12 12:51:57;;;;;;;24.27;9.73;;;;;;;;;;5073481;28;20039;-48
2022/05/12 12:57:19;;;;;;;14.65;9.60;;;;;;;;;;5073202;28;20040;-48
2022/05/12 12:59:50;;;;;;;4.32;2.97;;;;;;;;;;5073609;28;20028;-48
2022/05/12 13:02:45;;;;;;;8.23;2.80;;;;;;;;;;5073734;28;20086;-48
2022/05/12 13:05:13;;;;;;;10.68;7.57;;;;;;;;;;4973066;28;20518;-48
2022/05/12 13:07:45;;;;;;;17.15;10.70;;;;;;;;;;4972535;28;20030;-47
2022/05/12 13:10:13;;;;;;;19.35;13.55;;;;;;;;;;4972518;28;20171;-48
2022/05/12 13:12:40;;;;;;;16.45;9.82;;;;;;;;;;4972539;28;20089;-48
2022/05/12 13:15:22;;;;;;;14.15;7.55;;;;;;;;;;4972529;28;20082;-48
2022/05/12 13:17:50;;;;;;;8.55;3.47;;;;;;;;;;4972474;28;20074;-48
2022/05/12 13:20:21;;;;;;;9.18;3.67;;;;;;;;;;4972267;28;20035;-47
2022/05/12 13:23:16;;;;;;;6.93;3.65;;;;;;;;;;4972528;28;20031;-48
2022/05/12 13:25:42;;;;;;;21.67;11.52;;;;;;;;;;4964027;28;20039;-48
2022/05/12 13:28:13;;;;;;;20.75;12.75;;;;;;;;;;4953786;28;20043;-48
2022/05/12 13:30:39;;;;;;;11.57;6.80;;;;;;;;;;4941104;28;20066;-48
2022/05/12 13:33:20;;;;;;;16.60;10.93;;;;;;;;;;4940282;28;20294;-49
2022/05/12 13:35:57;;;;;;;17.17;7.28;;;;;;;;;;4941534;28;20047;-48
2022/05/12 13:38:27;;;;;;;10.38;4.60;;;;;;;;;;4940733;28;20542;-48
2022/05/12 13:40:56;;;;;;;11.32;7.18;;;;;;;;;;4957918;28;20051;-47
2022/05/12 13:43:28;;;;;;;16.67;7.95;;;;;;;;;;5047181;28;20435;-47
2022/05/12 13:46:03;;;;;;;12.90;5.40;;;;;;;;;;5048416;28;20659;-48
2022/05/12 13:48:32;;;;;;;16.50;9.07;;;;;;;;;;5047180;28;20066;-48
2022/05/12 13:50:58;;;;;;;14.13;7.28;;;;;;;;;;5048393;28;20162;-48
2022/05/12 13:53:24;;;;;;;10.15;5.82;;;;;;;;;;5048816;28;20103;-48
2022/05/12 13:56:05;;;;;;;55.17;28.80;;;;;;;;;;5048450;28;20404;-48
2022/05/12 13:58:31;;;;;;;10.60;5.55;;;;;;;;;;5048628;28;20114;-47
2022/05/12 14:00:57;;;;;;;13.00;5.47;;;;;;;;;;5048480;28;20020;-48
2022/05/12 14:03:32;;;;;;;8.82;4.38;;;;;;;;;;5048917;28;20036;-47
2022/05/12 14:06:10;;;;;;;19.00;9.48;;;;;;;;;;5048352;28;20111;-48
2022/05/12 14:08:36;;;;;;;13.80;5.65;;;;;;;;;;5050132;28;20032;-47
2022/05/12 14:11:02;;;;;;;13.85;5.40;;;;;;;;;;5052127;28;20564;-47
2022/05/12 14:19:18;;;;;;;14.63;5.57;;;;;;;;;;5051319;28;20052;-48
2022/05/12 14:21:46;;;;;;;6.85;4.28;;;;;;;;;;5050624;28;20463;-48
2022/05/12 14:24:12;;;;;;;8.02;5.03;;;;;;;;;;5050751;28;20483;-48
2022/05/12 14:26:40;;;;;;;11.75;5.30;;;;;;;;;;5049129;28;20131;-48
2022/05/12 14:29:06;;;;;;;17.05;9.98;;;;;;;;;;5052077;28;20036;-47
2022/05/12 14:31:35;;;;;;;8.90;5.82;;;;;;;;;;5051743;28;20036;-47
2022/05/12 14:34:01;;;;;;;18.90;13.43;;;;;;;;;;5051892;28;20021;-47
2022/05/12 14:36:27;;;;;;;17.90;11.93;;;;;;;;;;5051861;28;20039;-47
2022/05/12 14:38:53;;;;;;;19.95;9.90;;;;;;;;;;5051288;28;20035;-52
2022/05/12 14:41:20;;;;;;;12.52;6.60;;;;;;;;;;5050960;28;20093;-48
2022/05/12 14:43:47;;;;;;;21.85;14.55;;;;;;;;;;5051680;28;20143;-47
2022/05/12 14:46:13;;;;;;;16.05;10.02;;;;;;;;;;5049465;28;20025;-47
2022/05/12 14:48:44;;;;;;;11.48;7.18;;;;;;;;;;5051534;28;20021;-47
2022/05/12 14:51:11;;;;;;;;;;;;;;;;;;5050614;28;20057;-47
2022/05/12 14:53:39;;;;;;;22.88;14.00;;;;;;;;;;5050521;28;19946;-48
2022/05/12 14:56:06;;;;;;;8.27;5.60;;;;;;;;;;5050851;28;20358;-48
2022/05/12 14:58:33;;;;;;;37.78;23.52;;;;;;;;;;5051471;28;20025;-47
2022/05/12 15:00:59;;;;;;;30.05;15.75;;;;;;;;;;5051165;28;20107;-49
2022/05/12 15:03:26;;;;;;;17.55;10.98;;;;;;;;;;5051538;28;20029;-48
2022/05/12 15:05:52;;;;;;;45.58;29.30;;;;;;;;;;5051519;28;20052;-48
2022/05/12 15:08:18;;;;;;;30.33;20.02;;;;;;;;;;5051108;28;20498;-48
2022/05/12 15:10:44;;;;;;;16.05;9.38;;;;;;;;;;5050378;28;20463;-49
2022/05/12 15:13:13;;;;;;;27.83;13.35;;;;;;;;;;5049479;28;20045;-48
2022/05/12 15:15:39;;;;;;;12.10;6.90;;;;;;;;;;5050278;28;20405;-48
2022/05/12 15:18:05;;;;;;;13.82;9.07;;;;;;;;;;5050909;28;20021;-48